Time;durP1;ratioP1;P1;durP2;ratioP2;P2;SDS_P1;SDS_P2;PMS_P1;PMS_P2;Temp;Humidity;BMP_temperature;BMP_pressure;BME280_temperature;BME280_humidity;BME280_pressure;Samples;Min_cycle;Max_cycle;Signal;HPM_P1;HPM_P2
2024/01/26 00:02:25;;;;;;;15.23;11.10;;;9.30;99.90;;;;;;5074369;28;20166;-73
2024/01/26 00:04:50;;;;;;;13.43;10.50;;;9.30;99.90;;;;;;5073911;28;20174;-73
2024/01/26 00:07:16;;;;;;;15.10;11.57;;;9.40;99.90;;;;;;5074106;28;20238;-73
2024/01/26 00:09:42;;;;;;;13.20;10.97;;;9.40;99.90;;;;;;5073764;28;20660;-73
2024/01/26 00:12:07;;;;;;;17.70;10.13;;;9.50;99.90;;;;;;5074066;28;20541;-74
2024/01/26 00:14:33;;;;;;;12.83;10.50;;;9.50;99.90;;;;;;5073510;28;20205;-73
2024/01/26 00:16:59;;;;;;;13.50;9.73;;;9.60;99.90;;;;;;5073610;28;20299;-73
2024/01/26 00:19:24;;;;;;;12.87;10.10;;;9.60;99.90;;;;;;5053921;28;20264;-74
2024/01/26 00:21:50;;;;;;;14.83;10.77;;;9.60;99.90;;;;;;5053537;28;20198;-73
2024/01/26 00:24:16;;;;;;;14.30;10.30;;;9.60;99.90;;;;;;5053746;28;20198;-74
2024/01/26 00:26:41;;;;;;;11.60;10.00;;;9.60;99.90;;;;;;5053342;28;20191;-73
2024/01/26 00:29:07;;;;;;;11.97;10.23;;;9.60;99.90;;;;;;5053515;28;20258;-74
2024/01/26 00:31:32;;;;;;;16.67;10.50;;;9.70;99.90;;;;;;5053741;28;20167;-73
2024/01/26 00:33:58;;;;;;;13.17;10.17;;;9.70;99.90;;;;;;5073610;28;20189;-73
2024/01/26 00:36:24;;;;;;;12.17;10.80;;;9.70;99.90;;;;;;5075185;28;20284;-73
2024/01/26 00:38:49;;;;;;;12.03;10.83;;;9.70;99.90;;;;;;5073250;28;20680;-73
2024/01/26 00:41:15;;;;;;;14.57;10.83;;;9.70;99.90;;;;;;5073212;28;20568;-73
2024/01/26 00:43:41;;;;;;;15.53;10.30;;;9.70;99.90;;;;;;5057424;28;20210;-73
2024/01/26 00:46:07;;;;;;;20.53;10.63;;;9.70;99.90;;;;;;5061360;28;20221;-73
2024/01/26 00:48:33;;;;;;;14.33;10.33;;;9.60;99.90;;;;;;5073057;28;20174;-73
2024/01/26 00:50:59;;;;;;;17.33;10.57;;;9.60;99.90;;;;;;5072509;28;20519;-73
2024/01/26 00:53:25;;;;;;;16.27;11.70;;;9.70;99.90;;;;;;5072740;28;20550;-73
2024/01/26 00:55:50;;;;;;;13.67;10.80;;;9.70;99.90;;;;;;5072545;28;20189;-73
2024/01/26 00:58:16;;;;;;;13.07;10.87;;;9.70;99.90;;;;;;5063062;28;20628;-73
2024/01/26 01:00:42;;;;;;;15.17;11.33;;;9.70;99.90;;;;;;5034724;28;20631;-73
2024/01/26 01:03:07;;;;;;;14.37;10.77;;;9.70;99.90;;;;;;5052530;28;20167;-73
2024/01/26 01:05:33;;;;;;;13.70;10.73;;;9.60;99.90;;;;;;5052417;28;20171;-74
2024/01/26 01:07:59;;;;;;;13.33;10.87;;;9.70;99.90;;;;;;5052992;28;20183;-73
2024/01/26 01:10:24;;;;;;;13.53;11.43;;;9.70;99.90;;;;;;5052555;28;20179;-73
2024/01/26 01:12:52;;;;;;;12.50;10.20;;;9.70;99.90;;;;;;5060372;28;20252;-75
2024/01/26 01:15:17;;;;;;;13.07;10.80;;;9.70;99.90;;;;;;5072303;28;20166;-72
2024/01/26 01:17:44;;;;;;;15.17;11.80;;;9.80;99.90;;;;;;5072322;28;20209;-72
2024/01/26 01:20:12;;;;;;;12.20;10.93;;;9.80;99.90;;;;;;5072456;28;20170;-73
2024/01/26 01:22:38;;;;;;;12.50;10.87;;;9.80;99.90;;;;;;5072331;28;20181;-73
2024/01/26 01:25:06;;;;;;;17.27;13.53;;;9.80;99.90;;;;;;5072286;28;20202;-73
2024/01/26 01:27:32;;;;;;;13.90;12.07;;;9.80;99.90;;;;;;5070381;28;20600;-73
2024/01/26 01:29:58;;;;;;;18.63;14.13;;;9.80;99.90;;;;;;5071901;28;20227;-72
2024/01/26 01:32:23;;;;;;;21.10;13.73;;;9.90;99.90;;;;;;5071700;28;20253;-73
2024/01/26 01:34:49;;;;;;;15.73;12.40;;;9.90;99.90;;;;;;5071888;28;20250;-73
2024/01/26 01:37:14;;;;;;;17.20;12.07;;;9.90;99.90;;;;;;5071763;28;20209;-72
2024/01/26 01:39:40;;;;;;;19.77;12.90;;;10.00;99.90;;;;;;5071737;28;20178;-72
2024/01/26 01:42:13;;;;;;;17.07;12.83;;;10.10;99.90;;;;;;5053505;28;20213;-73
2024/01/26 01:44:40;;;;;;;19.60;11.87;;;10.10;99.90;;;;;;5051898;28;20427;-72
2024/01/26 01:47:06;;;;;;;16.07;12.23;;;10.10;99.90;;;;;;5051858;28;20197;-72
2024/01/26 01:49:32;;;;;;;21.13;14.63;;;10.20;99.90;;;;;;5051866;28;20257;-73
2024/01/26 01:51:59;;;;;;;21.73;13.63;;;10.20;99.90;;;;;;5051865;28;20230;-73
2024/01/26 01:54:29;;;;;;;18.50;13.77;;;10.20;99.90;;;;;;5052257;28;20177;-73
2024/01/26 01:56:56;;;;;;;18.33;13.83;;;10.30;99.90;;;;;;5072816;28;20202;-73
2024/01/26 01:59:22;;;;;;;19.70;13.90;;;10.30;99.90;;;;;;5073687;28;20170;-73
2024/01/26 02:01:49;;;;;;;18.50;13.97;;;10.30;99.90;;;;;;5070935;28;20567;-73
2024/01/26 02:04:15;;;;;;;20.73;13.93;;;10.30;99.90;;;;;;5064752;28;20175;-73
2024/01/26 02:06:40;;;;;;;19.87;13.43;;;10.40;99.90;;;;;;5052168;28;20554;-72
2024/01/26 02:09:06;;;;;;;21.27;13.40;;;10.40;99.90;;;;;;5052055;28;20178;-72
2024/01/26 02:11:32;;;;;;;20.87;13.80;;;10.40;99.90;;;;;;5051450;28;20178;-73
2024/01/26 02:13:59;;;;;;;17.60;13.33;;;10.50;99.90;;;;;;5067260;28;20182;-72
2024/01/26 02:16:25;;;;;;;17.73;13.40;;;10.50;99.90;;;;;;5071573;28;20565;-75
2024/01/26 02:18:50;;;;;;;17.47;12.60;;;10.50;99.90;;;;;;5071588;28;20201;-73
2024/01/26 02:21:16;;;;;;;22.30;13.83;;;10.50;99.90;;;;;;5071539;28;20277;-73
2024/01/26 02:23:43;;;;;;;19.70;13.60;;;10.50;99.90;;;;;;5071437;28;20660;-74
2024/01/26 02:26:09;;;;;;;17.07;13.33;;;10.50;99.90;;;;;;5048639;28;20221;-73
2024/01/26 02:28:35;;;;;;;19.10;13.33;;;10.50;99.90;;;;;;5051261;28;20183;-73
2024/01/26 02:31:01;;;;;;;18.23;13.53;;;10.50;99.90;;;;;;5051257;28;20654;-73
2024/01/26 02:33:26;;;;;;;20.33;13.30;;;10.50;99.90;;;;;;5051139;28;20266;-72
2024/01/26 02:35:52;;;;;;;18.10;13.47;;;10.50;99.90;;;;;;5051208;28;20198;-72
2024/01/26 02:38:18;;;;;;;18.20;14.10;;;10.50;99.90;;;;;;5051248;28;20913;-73
2024/01/26 02:40:44;;;;;;;17.30;13.23;;;10.50;99.90;;;;;;5071067;28;20166;-72
2024/01/26 02:43:10;;;;;;;20.33;14.10;;;10.50;99.90;;;;;;5071399;28;20645;-72
2024/01/26 02:45:35;;;;;;;17.53;13.43;;;10.40;99.90;;;;;;5052981;28;20166;-73
2024/01/26 02:48:01;;;;;;;19.63;13.37;;;10.40;99.90;;;;;;5071342;28;20227;-73
2024/01/26 02:50:26;;;;;;;17.57;13.20;;;10.40;99.90;;;;;;5071170;28;20189;-73
2024/01/26 02:52:52;;;;;;;19.27;13.27;;;10.40;99.90;;;;;;5071335;28;20202;-73
2024/01/26 02:55:17;;;;;;;18.23;12.67;;;10.40;99.90;;;;;;5052910;28;20198;-72
2024/01/26 02:57:43;;;;;;;17.43;13.00;;;10.40;99.90;;;;;;5051067;28;20203;-72
2024/01/26 03:00:09;;;;;;;17.83;13.83;;;10.40;99.90;;;;;;5050982;28;20173;-72
2024/01/26 03:02:35;;;;;;;14.67;12.20;;;10.40;99.90;;;;;;5050890;28;20166;-72
2024/01/26 03:05:00;;;;;;;17.60;13.00;;;10.40;99.90;;;;;;5051188;28;20167;-73
2024/01/26 03:07:26;;;;;;;16.60;12.40;;;10.40;99.90;;;;;;5059438;28;20756;-72
2024/01/26 03:09:51;;;;;;;16.60;12.77;;;10.40;99.90;;;;;;5070826;28;20174;-72
2024/01/26 03:12:17;;;;;;;15.17;12.03;;;10.40;99.90;;;;;;5071160;28;20260;-73
2024/01/26 03:14:42;;;;;;;14.33;11.90;;;10.40;99.90;;;;;;5074320;28;20290;-72
2024/01/26 03:17:08;;;;;;;15.00;11.43;;;10.40;99.90;;;;;;5061253;28;20206;-73
2024/01/26 03:19:35;;;;;;;15.43;11.30;;;10.40;99.90;;;;;;5059134;28;20194;-72
2024/01/26 03:22:01;;;;;;;16.90;12.23;;;10.40;99.90;;;;;;5055474;28;20159;-73
2024/01/26 03:24:27;;;;;;;14.50;11.80;;;10.30;99.90;;;;;;5054466;28;20217;-73
2024/01/26 03:26:53;;;;;;;14.67;10.40;;;10.40;99.90;;;;;;5054364;28;20690;-72
2024/01/26 03:29:19;;;;;;;21.33;10.77;;;10.40;99.90;;;;;;5054797;28;20246;-73
2024/01/26 03:31:45;;;;;;;12.83;10.30;;;10.40;99.90;;;;;;5054620;28;20178;-73
2024/01/26 03:34:11;;;;;;;14.43;9.97;;;10.40;99.90;;;;;;5054445;28;20255;-72
2024/01/26 03:36:36;;;;;;;11.60;10.40;;;10.30;99.90;;;;;;5054183;28;20194;-72
2024/01/26 03:39:03;;;;;;;10.33;8.90;;;10.30;99.90;;;;;;5054233;28;20202;-72
2024/01/26 03:41:29;;;;;;;10.97;9.47;;;10.30;99.90;;;;;;5054331;28;20224;-72
2024/01/26 03:43:55;;;;;;;13.77;9.37;;;10.30;99.90;;;;;;5054333;28;20588;-72
2024/01/26 03:46:21;;;;;;;10.33;9.13;;;10.30;99.90;;;;;;5065784;28;20494;-72
2024/01/26 03:48:47;;;;;;;10.07;8.77;;;10.30;99.90;;;;;;5074180;28;20182;-72
2024/01/26 03:51:13;;;;;;;10.67;8.67;;;10.30;99.90;;;;;;5074275;28;20523;-72
2024/01/26 03:53:39;;;;;;;11.13;9.17;;;10.30;99.90;;;;;;5073999;28;20182;-72
2024/01/26 03:56:04;;;;;;;9.77;8.10;;;10.30;99.90;;;;;;5073974;28;20570;-72
2024/01/26 03:58:30;;;;;;;10.43;8.83;;;10.30;99.90;;;;;;5071185;28;20202;-72
2024/01/26 04:00:56;;;;;;;10.43;8.30;;;10.30;99.90;;;;;;5053877;28;20163;-72
2024/01/26 04:03:22;;;;;;;9.10;7.60;;;10.30;99.90;;;;;;5053972;28;20163;-71
2024/01/26 04:05:47;;;;;;;7.80;7.10;;;10.30;99.90;;;;;;5053388;28;20175;-71
2024/01/26 04:08:13;;;;;;;9.03;6.87;;;10.30;99.90;;;;;;5054000;28;20177;-72
2024/01/26 04:10:39;;;;;;;7.20;6.50;;;10.30;99.90;;;;;;5053330;28;20553;-73
2024/01/26 04:13:05;;;;;;;7.87;6.40;;;10.30;99.90;;;;;;5054452;28;20245;-73
2024/01/26 04:15:30;;;;;;;7.83;6.27;;;10.30;99.90;;;;;;5073356;28;20177;-73
2024/01/26 04:17:57;;;;;;;6.57;5.87;;;10.30;99.90;;;;;;5073856;28;20230;-73
2024/01/26 04:20:23;;;;;;;7.60;6.33;;;10.30;99.90;;;;;;5073547;28;20221;-73
2024/01/26 04:22:48;;;;;;;7.37;6.67;;;10.20;99.90;;;;;;5073365;28;20696;-73
2024/01/26 04:25:14;;;;;;;7.63;6.03;;;10.20;99.90;;;;;;5072824;28;20170;-73
2024/01/26 04:27:40;;;;;;;9.33;6.03;;;10.10;99.90;;;;;;5061222;28;20210;-73
2024/01/26 04:30:06;;;;;;;6.33;5.60;;;10.10;99.90;;;;;;5053250;28;20229;-74
2024/01/26 04:32:32;;;;;;;8.27;5.90;;;10.00;99.90;;;;;;5053046;28;20181;-73
2024/01/26 04:34:57;;;;;;;7.90;6.30;;;10.10;99.90;;;;;;5053976;28;20270;-73
2024/01/26 04:37:23;;;;;;;7.53;6.23;;;10.00;99.90;;;;;;5053408;28;20194;-73
2024/01/26 04:39:50;;;;;;;6.23;5.63;;;10.00;99.90;;;;;;5054220;28;20174;-73
2024/01/26 04:42:16;;;;;;;6.00;5.50;;;10.00;99.90;;;;;;5055877;28;20197;-73
2024/01/26 04:44:41;;;;;;;5.87;5.30;;;9.90;99.90;;;;;;5053177;28;20186;-73
2024/01/26 04:47:07;;;;;;;6.27;5.67;;;9.80;99.90;;;;;;5052791;28;20194;-73
2024/01/26 04:49:33;;;;;;;5.73;5.33;;;9.80;99.90;;;;;;5052679;28;20224;-72
2024/01/26 04:52:01;;;;;;;5.70;5.30;;;9.80;99.90;;;;;;5053337;28;20167;-73
2024/01/26 04:54:27;;;;;;;5.30;4.90;;;9.90;99.90;;;;;;5060719;28;20182;-72
2024/01/26 04:56:52;;;;;;;5.40;5.00;;;9.90;99.90;;;;;;5072469;28;20261;-73
2024/01/26 04:59:18;;;;;;;4.97;4.57;;;10.00;99.90;;;;;;5072891;28;20198;-73
2024/01/26 05:01:44;;;;;;;4.93;4.57;;;10.00;99.90;;;;;;5072222;28;20224;-73
2024/01/26 05:04:09;;;;;;;5.43;4.93;;;10.10;99.90;;;;;;5072855;28;20178;-72
2024/01/26 05:06:35;;;;;;;7.30;4.90;;;10.10;99.90;;;;;;5042311;28;20206;-73
2024/01/26 05:09:01;;;;;;;5.30;4.90;;;10.10;99.90;;;;;;5052558;28;20185;-73
2024/01/26 05:11:26;;;;;;;5.40;4.90;;;10.20;99.90;;;;;;5052468;28;20257;-73
2024/01/26 05:13:52;;;;;;;5.43;4.93;;;10.20;99.90;;;;;;5057519;28;20649;-73
2024/01/26 05:16:17;;;;;;;5.37;4.10;;;10.10;99.90;;;;;;5072607;28;20547;-74
2024/01/26 05:18:43;;;;;;;5.57;4.90;;;10.10;99.90;;;;;;5072028;28;20617;-73
2024/01/26 05:21:09;;;;;;;4.97;4.60;;;10.10;99.90;;;;;;5072171;28;20185;-73
2024/01/26 05:23:35;;;;;;;5.30;4.80;;;10.10;99.90;;;;;;5055264;28;20217;-74
2024/01/26 05:26:01;;;;;;;4.20;4.00;;;10.10;99.90;;;;;;5052108;28;20237;-73
2024/01/26 05:28:26;;;;;;;6.37;4.93;;;10.10;99.90;;;;;;5052267;28;20177;-73
2024/01/26 05:30:52;;;;;;;4.90;4.50;;;10.10;99.90;;;;;;5051993;28;20294;-73
2024/01/26 05:33:18;;;;;;;4.80;4.43;;;10.00;99.90;;;;;;5052011;28;20705;-72
2024/01/26 05:35:45;;;;;;;4.50;4.10;;;10.00;99.90;;;;;;5051808;28;20262;-72
2024/01/26 05:38:11;;;;;;;4.00;3.80;;;10.00;99.90;;;;;;5065458;28;20236;-73
2024/01/26 05:40:36;;;;;;;4.43;4.03;;;10.00;99.90;;;;;;5071489;28;20202;-73
2024/01/26 05:43:02;;;;;;;4.67;4.27;;;10.00;99.90;;;;;;5072049;28;20174;-73
2024/01/26 05:45:28;;;;;;;3.93;3.73;;;10.00;99.90;;;;;;5071757;28;20167;-73
2024/01/26 05:47:53;;;;;;;4.07;3.77;;;10.00;99.90;;;;;;5071967;28;20202;-72
2024/01/26 05:50:21;;;;;;;4.40;4.00;;;10.10;99.90;;;;;;5065232;28;20293;-73
2024/01/26 05:52:47;;;;;;;4.07;3.83;;;10.10;99.90;;;;;;5051724;28;20709;-71
2024/01/26 05:55:14;;;;;;;4.47;4.10;;;10.20;99.90;;;;;;5051717;28;20175;-71
2024/01/26 05:57:40;;;;;;;4.70;4.40;;;10.20;99.90;;;;;;5051593;28;20580;-72
2024/01/26 06:00:06;;;;;;;4.27;3.97;;;10.20;99.90;;;;;;5051871;28;20167;-72
2024/01/26 06:02:32;;;;;;;5.63;4.90;;;10.20;99.90;;;;;;5052768;28;20175;-72
2024/01/26 06:04:58;;;;;;;6.60;4.73;;;10.20;99.90;;;;;;5058982;28;20200;-72
2024/01/26 06:07:23;;;;;;;5.50;4.90;;;10.20;99.90;;;;;;5071543;28;20210;-72
2024/01/26 06:09:49;;;;;;;5.67;5.17;;;10.00;99.90;;;;;;5071200;28;20174;-73
2024/01/26 06:12:14;;;;;;;5.47;5.03;;;10.00;99.90;;;;;;5053779;28;20173;-73
2024/01/26 06:14:40;;;;;;;5.57;4.80;;;9.80;99.90;;;;;;5071621;28;20182;-72
2024/01/26 06:17:05;;;;;;;6.27;4.80;;;9.70;99.90;;;;;;5071196;28;20208;-73
2024/01/26 06:19:31;;;;;;;8.17;6.43;;;9.70;99.90;;;;;;5054901;28;20186;-73
2024/01/26 06:21:57;;;;;;;8.87;5.73;;;9.70;99.90;;;;;;5051128;28;20257;-73
2024/01/26 06:24:23;;;;;;;5.30;4.97;;;9.60;99.90;;;;;;5051362;28;20181;-73
2024/01/26 06:26:48;;;;;;;8.73;4.90;;;9.70;99.90;;;;;;5050951;28;20203;-72
2024/01/26 06:29:14;;;;;;;5.20;4.67;;;9.60;99.90;;;;;;5052628;28;20175;-72
2024/01/26 06:31:40;;;;;;;7.73;5.10;;;9.70;99.90;;;;;;5051060;28;20664;-71
2024/01/26 06:34:05;;;;;;;9.00;5.03;;;9.70;99.90;;;;;;5051038;28;20166;-73
2024/01/26 06:36:31;;;;;;;5.00;4.60;;;9.70;99.90;;;;;;5051396;28;20269;-74
2024/01/26 06:38:57;;;;;;;5.37;4.90;;;9.80;99.90;;;;;;5051125;28;20289;-73
2024/01/26 06:41:22;;;;;;;4.93;4.53;;;9.80;99.90;;;;;;5051270;28;20217;-73
2024/01/26 06:43:51;;;;;;;4.93;4.47;;;9.80;99.90;;;;;;5050956;28;20175;-73
2024/01/26 06:46:23;;;;;;;5.97;5.00;;;9.90;99.90;;;;;;5051211;28;20260;-73
2024/01/26 06:48:49;;;;;;;5.40;4.90;;;9.90;99.90;;;;;;5054152;28;20207;-73
2024/01/26 06:51:15;;;;;;;5.60;4.60;;;10.00;99.90;;;;;;5055053;28;20257;-73
2024/01/26 06:53:41;;;;;;;4.60;4.30;;;10.00;99.90;;;;;;5054799;28;20179;-72
2024/01/26 06:56:07;;;;;;;5.40;5.00;;;10.10;99.90;;;;;;5056021;28;20280;-73
2024/01/26 06:58:33;;;;;;;4.47;4.17;;;10.10;99.90;;;;;;5055384;28;20202;-73
2024/01/26 07:00:59;;;;;;;4.97;4.57;;;10.10;99.90;;;;;;5070295;28;20672;-73
2024/01/26 07:03:25;;;;;;;4.90;4.60;;;10.20;99.90;;;;;;5074811;28;20193;-73
2024/01/26 07:05:50;;;;;;;5.13;4.40;;;10.10;99.90;;;;;;5073853;28;20293;-73
2024/01/26 07:08:16;;;;;;;5.07;4.77;;;10.20;99.90;;;;;;5074650;28;20197;-73
2024/01/26 07:10:42;;;;;;;5.30;5.00;;;10.10;99.90;;;;;;5074402;28;20178;-72
2024/01/26 07:13:08;;;;;;;5.23;4.90;;;10.10;99.90;;;;;;5054920;28;20181;-71
2024/01/26 07:15:34;;;;;;;5.37;4.87;;;10.00;99.90;;;;;;5074304;28;20545;-72
2024/01/26 07:18:00;;;;;;;5.30;4.83;;;10.00;99.90;;;;;;5074465;28;20770;-73
2024/01/26 07:20:25;;;;;;;5.47;5.00;;;9.90;99.90;;;;;;5063168;28;20179;-73
2024/01/26 07:22:51;;;;;;;6.13;4.70;;;9.90;99.90;;;;;;5036785;28;20634;-73
2024/01/26 07:25:19;;;;;;;5.23;4.83;;;10.00;99.90;;;;;;5057234;28;20185;-74
2024/01/26 07:27:48;;;;;;;6.03;5.43;;;10.00;99.90;;;;;;5056719;28;20230;-73
2024/01/26 07:30:17;;;;;;;8.33;5.27;;;10.00;99.90;;;;;;5054294;28;20662;-73
2024/01/26 07:32:42;;;;;;;5.60;5.20;;;10.10;99.90;;;;;;5053905;28;20195;-73
2024/01/26 07:35:08;;;;;;;5.47;4.97;;;10.10;99.90;;;;;;5054235;28;20216;-73
2024/01/26 07:37:34;;;;;;;5.80;5.20;;;10.20;99.90;;;;;;5053841;28;20268;-74
2024/01/26 07:40:04;;;;;;;5.60;5.07;;;10.20;99.90;;;;;;5054098;28;20232;-73
2024/01/26 07:42:31;;;;;;;6.57;5.97;;;10.20;99.90;;;;;;5068884;28;20174;-73
2024/01/26 07:44:56;;;;;;;5.90;5.40;;;10.20;99.90;;;;;;5073994;28;20196;-74
2024/01/26 07:47:22;;;;;;;6.67;5.77;;;10.30;99.90;;;;;;5073742;28;20198;-74
2024/01/26 07:49:48;;;;;;;6.83;5.80;;;10.30;99.90;;;;;;5072817;28;20591;-74
2024/01/26 07:52:15;;;;;;;6.97;5.73;;;10.30;99.90;;;;;;5073676;28;20174;-74
2024/01/26 07:54:40;;;;;;;6.50;5.73;;;10.30;99.90;;;;;;5068039;28;20543;-74
2024/01/26 07:57:06;;;;;;;7.17;6.57;;;10.40;99.90;;;;;;5053444;28;20195;-74
2024/01/26 07:59:31;;;;;;;7.57;5.93;;;10.40;99.90;;;;;;5052406;28;20174;-74
2024/01/26 08:01:57;;;;;;;6.40;5.63;;;10.40;99.90;;;;;;5053230;28;20175;-73
2024/01/26 08:04:23;;;;;;;9.03;6.00;;;10.50;99.90;;;;;;5053590;28;20661;-74
2024/01/26 08:06:49;;;;;;;6.77;6.13;;;10.50;99.90;;;;;;5053513;28;20259;-73
2024/01/26 08:09:14;;;;;;;9.13;6.50;;;10.50;99.90;;;;;;5070062;28;20174;-75
2024/01/26 08:11:40;;;;;;;6.60;6.00;;;10.50;99.90;;;;;;5073084;28;20180;-74
2024/01/26 08:14:06;;;;;;;6.83;6.13;;;10.50;99.90;;;;;;5073365;28;20174;-74
2024/01/26 08:16:32;;;;;;;8.00;6.00;;;10.50;99.90;;;;;;5073064;28;20197;-74
2024/01/26 08:18:58;;;;;;;6.87;6.27;;;10.50;99.90;;;;;;5073239;28;20669;-75
2024/01/26 08:21:24;;;;;;;5.63;5.13;;;10.50;99.90;;;;;;5061779;28;20249;-74
2024/01/26 08:23:49;;;;;;;5.47;4.97;;;10.60;99.90;;;;;;5071300;28;20217;-75
2024/01/26 08:26:15;;;;;;;5.53;4.67;;;10.60;99.90;;;;;;5073083;28;20564;-74
2024/01/26 08:28:41;;;;;;;5.63;5.10;;;10.70;99.90;;;;;;5073181;28;20672;-74
2024/01/26 08:31:06;;;;;;;5.70;4.70;;;10.70;99.90;;;;;;5072924;28;20173;-73
2024/01/26 08:33:32;;;;;;;4.43;4.13;;;10.70;99.90;;;;;;5072962;28;20492;-74
2024/01/26 08:35:57;;;;;;;4.80;4.33;;;10.80;99.90;;;;;;5072702;28;20191;-75
2024/01/26 08:38:23;;;;;;;4.97;4.20;;;10.80;99.90;;;;;;5073161;28;20243;-75
2024/01/26 08:40:49;;;;;;;5.23;4.43;;;10.90;99.90;;;;;;5072392;28;20688;-74
2024/01/26 08:43:15;;;;;;;4.90;4.40;;;10.90;99.90;;;;;;5081296;28;20518;-75
2024/01/26 08:45:41;;;;;;;5.33;4.10;;;10.90;99.90;;;;;;5075804;28;20182;-75
2024/01/26 08:48:07;;;;;;;4.97;4.10;;;10.90;99.90;;;;;;5054010;28;20217;-73
2024/01/26 08:50:32;;;;;;;4.80;4.40;;;11.00;99.90;;;;;;5077491;28;20184;-75
2024/01/26 08:52:58;;;;;;;4.60;4.20;;;11.00;99.90;;;;;;5093883;28;20731;-75
2024/01/26 08:55:24;;;;;;;4.37;4.00;;;11.00;99.90;;;;;;5089298;28;20256;-73
2024/01/26 08:57:50;;;;;;;3.90;3.70;;;11.00;99.90;;;;;;5072239;28;20551;-74
2024/01/26 09:00:19;;;;;;;4.03;3.67;;;11.10;99.90;;;;;;5067296;28;20407;-74
2024/01/26 09:02:45;;;;;;;5.93;3.73;;;11.10;99.90;;;;;;5059847;28;20525;-74
2024/01/26 09:05:11;;;;;;;4.13;3.80;;;11.10;99.90;;;;;;5072326;28;20198;-74
2024/01/26 09:07:37;;;;;;;4.30;3.70;;;11.20;99.90;;;;;;5071999;28;20209;-75
2024/01/26 09:10:04;;;;;;;4.07;3.67;;;11.20;99.90;;;;;;5069573;28;20590;-76
2024/01/26 09:12:29;;;;;;;4.50;4.10;;;11.20;99.90;;;;;;5070732;28;20200;-74
2024/01/26 09:14:55;;;;;;;4.53;3.60;;;11.20;99.90;;;;;;5071919;28;20197;-75
2024/01/26 09:17:21;;;;;;;4.17;3.87;;;11.20;99.90;;;;;;5070198;28;20222;-75
2024/01/26 09:19:46;;;;;;;4.17;3.90;;;11.20;99.90;;;;;;5071670;28;20653;-74
2024/01/26 09:22:12;;;;;;;6.20;4.33;;;11.30;99.90;;;;;;5070537;28;20166;-74
2024/01/26 09:24:37;;;;;;;4.93;4.47;;;11.30;99.90;;;;;;5071294;28;20184;-75
2024/01/26 09:27:03;;;;;;;4.30;4.00;;;11.30;99.90;;;;;;5071788;28;20186;-74
2024/01/26 09:29:29;;;;;;;4.23;3.93;;;11.30;99.90;;;;;;5064696;28;20181;-75
2024/01/26 09:31:56;;;;;;;5.27;4.40;;;11.40;99.90;;;;;;5062689;28;20171;-74
2024/01/26 09:34:22;;;;;;;6.17;5.03;;;11.40;99.90;;;;;;5057010;28;20190;-75
2024/01/26 09:36:48;;;;;;;4.93;4.53;;;11.40;99.90;;;;;;5069514;28;20190;-75
2024/01/26 09:39:13;;;;;;;5.60;5.10;;;11.50;99.90;;;;;;5051668;28;20203;-74
2024/01/26 09:41:39;;;;;;;6.97;4.60;;;11.50;99.90;;;;;;5051075;28;20201;-74
2024/01/26 09:44:05;;;;;;;5.33;4.83;;;11.50;99.90;;;;;;5070399;28;20228;-74
2024/01/26 09:46:31;;;;;;;7.27;4.90;;;11.60;99.90;;;;;;5071435;28;20194;-74
2024/01/26 09:48:57;;;;;;;8.07;5.20;;;11.60;99.90;;;;;;5059620;28;20174;-75
2024/01/26 09:51:27;;;;;;;5.10;4.50;;;11.70;99.90;;;;;;5051342;28;20522;-74
2024/01/26 09:53:58;;;;;;;5.47;4.97;;;11.70;99.90;;;;;;5051365;28;20284;-74
2024/01/26 09:56:24;;;;;;;5.37;4.87;;;11.70;99.90;;;;;;5052013;28;20640;-74
2024/01/26 09:58:50;;;;;;;6.33;5.20;;;11.70;99.90;;;;;;5057781;28;20661;-74
2024/01/26 10:01:21;;;;;;;5.27;4.77;;;11.70;99.90;;;;;;5057863;28;20225;-75
2024/01/26 10:03:47;;;;;;;5.07;4.67;;;11.80;99.90;;;;;;5054687;28;20179;-74
2024/01/26 10:06:13;;;;;;;5.90;4.83;;;11.80;99.90;;;;;;5051855;28;20193;-75
2024/01/26 10:08:39;;;;;;;5.63;4.70;;;11.80;99.90;;;;;;5052525;28;20167;-75
2024/01/26 10:11:05;;;;;;;4.93;4.53;;;11.80;99.90;;;;;;5052691;28;20171;-74
2024/01/26 10:13:31;;;;;;;5.13;4.73;;;11.70;99.90;;;;;;5051348;28;20251;-73
2024/01/26 10:16:12;;;;;;;5.47;4.97;;;11.80;99.90;;;;;;5050733;28;20236;-74
2024/01/26 10:18:44;;;;;;;5.33;4.83;;;11.70;99.90;;;;;;5051095;28;20708;-74
2024/01/26 10:21:11;;;;;;;5.47;5.07;;;11.70;99.90;;;;;;5051120;28;20163;-75
2024/01/26 10:23:36;;;;;;;5.80;5.27;;;11.70;99.90;;;;;;5050254;28;20171;-73
2024/01/26 10:26:02;;;;;;;8.77;5.73;;;11.70;99.90;;;;;;5052476;28;20252;-74
2024/01/26 10:28:28;;;;;;;5.87;5.37;;;11.60;99.90;;;;;;5051203;28;20167;-75
2024/01/26 10:30:54;;;;;;;6.50;5.90;;;11.70;99.90;;;;;;5050885;28;20178;-74
2024/01/26 10:33:23;;;;;;;5.90;5.33;;;11.70;99.90;;;;;;5051122;28;20219;-74
2024/01/26 10:36:00;;;;;;;5.40;4.97;;;11.60;99.90;;;;;;5061587;28;20208;-74
2024/01/26 10:38:29;;;;;;;7.50;5.10;;;11.60;99.90;;;;;;5071321;28;20194;-75
2024/01/26 10:41:04;;;;;;;6.07;5.57;;;11.60;99.90;;;;;;5071133;28;20268;-74
2024/01/26 10:43:31;;;;;;;5.63;4.93;;;11.60;99.90;;;;;;5071186;28;20161;-75
2024/01/26 10:45:57;;;;;;;5.23;4.83;;;11.60;99.90;;;;;;5071176;28;20190;-75
2024/01/26 10:48:24;;;;;;;5.67;5.13;;;11.60;99.90;;;;;;5046538;28;20638;-75
2024/01/26 10:50:50;;;;;;;5.50;5.00;;;11.60;99.90;;;;;;5050904;28;20233;-75
2024/01/26 10:53:17;;;;;;;5.70;5.20;;;11.60;99.90;;;;;;5059626;28;20183;-75
2024/01/26 10:55:44;;;;;;;7.17;5.40;;;11.60;99.90;;;;;;5050798;28;20175;-75
2024/01/26 10:58:10;;;;;;;7.77;5.13;;;11.60;99.90;;;;;;5051107;28;20608;-76
2024/01/26 11:00:35;;;;;;;6.43;5.93;;;11.60;99.90;;;;;;5050725;28;20178;-74
2024/01/26 11:03:03;;;;;;;6.13;5.40;;;11.50;99.90;;;;;;5050854;28;20548;-73
2024/01/26 11:05:29;;;;;;;7.50;7.10;;;11.40;99.90;;;;;;5050983;28;20653;-76
2024/01/26 11:07:55;;;;;;;7.00;4.43;;;11.20;99.90;;;;;;5050787;28;20278;-76
2024/01/26 11:10:27;;;;;;;4.97;4.47;;;11.00;99.90;;;;;;5050920;28;20174;-75
2024/01/26 11:13:06;;;;;;;5.17;4.27;;;10.90;99.90;;;;;;5051082;28;20199;-76
2024/01/26 11:15:34;;;;;;;7.10;4.80;;;10.60;99.90;;;;;;5050711;28;20201;-75
2024/01/26 11:18:01;;;;;;;7.17;6.60;;;10.30;99.90;;;;;;5033106;28;20670;-76
2024/01/26 11:20:31;;;;;;;4.40;4.10;;;10.10;99.90;;;;;;5052282;28;20656;-72
2024/01/26 11:23:14;;;;;;;5.43;3.47;;;10.00;99.90;;;;;;5051487;28;20182;-76
2024/01/26 11:25:47;;;;;;;6.23;3.80;;;9.90;99.90;;;;;;5053334;28;20530;-75
2024/01/26 11:28:23;;;;;;;7.87;4.10;;;9.80;99.90;;;;;;5053616;28;20542;-75
2024/01/26 11:30:53;;;;;;;4.00;3.73;;;9.90;99.90;;;;;;5036572;28;20361;-75
2024/01/26 11:33:23;;;;;;;4.63;3.20;;;9.80;99.90;;;;;;5058072;28;20220;-75
2024/01/26 11:35:49;;;;;;;7.10;6.40;;;9.90;99.90;;;;;;5059271;28;20186;-73
2024/01/26 11:38:15;;;;;;;5.53;4.20;;;9.90;99.90;;;;;;5074533;28;20283;-74
2024/01/26 11:40:41;;;;;;;6.23;3.60;;;10.00;99.90;;;;;;5073810;28;20194;-76
2024/01/26 11:43:07;;;;;;;5.47;3.90;;;10.10;99.90;;;;;;5074462;28;20178;-72
2024/01/26 11:45:43;;;;;;;9.20;5.00;;;10.30;99.90;;;;;;5074492;28;20488;-74
2024/01/26 11:48:09;;;;;;;7.80;3.80;;;10.40;99.90;;;;;;5072820;28;20182;-73
2024/01/26 11:50:42;;;;;;;7.80;3.73;;;10.50;99.90;;;;;;5077121;28;20183;-74
2024/01/26 11:53:08;;;;;;;10.03;5.03;;;10.70;99.90;;;;;;5078182;28;20229;-75
2024/01/26 11:55:35;;;;;;;5.20;3.90;;;10.80;99.90;;;;;;5068559;28;20183;-74
2024/01/26 11:58:01;;;;;;;9.17;3.80;;;10.90;99.90;;;;;;5054177;28;20298;-74
2024/01/26 12:00:29;;;;;;;3.93;3.63;;;10.90;99.90;;;;;;5054155;28;20194;-74
2024/01/26 12:02:54;;;;;;;6.53;3.90;;;10.90;99.90;;;;;;5054330;28;20674;-73
2024/01/26 12:05:20;;;;;;;6.93;3.60;;;10.90;99.90;;;;;;5054479;28;20258;-73
2024/01/26 12:07:45;;;;;;;4.07;3.30;;;10.80;99.90;;;;;;5067609;28;20225;-74
2024/01/26 12:10:14;;;;;;;4.23;3.73;;;10.80;99.90;;;;;;5074015;28;20170;-74
2024/01/26 12:12:44;;;;;;;4.10;3.50;;;10.60;47.10;;;;;;5074101;28;20178;-71
2024/01/26 12:15:10;;;;;;;5.20;3.73;;;10.60;66.10;;;;;;5074548;28;20641;-73
2024/01/26 12:17:37;;;;;;;5.40;3.83;;;10.40;29.70;;;;;;5072467;28;20205;-74
2024/01/26 12:20:08;;;;;;;4.90;3.37;;;10.40;28.00;;;;;;5061185;28;20214;-73
2024/01/26 12:22:37;;;;;;;8.33;3.93;;;10.50;1.00;;;;;;5074001;28;20162;-73
2024/01/26 12:25:06;;;;;;;4.67;3.10;;;10.60;1.00;;;;;;5072388;28;20192;-72
2024/01/26 12:27:35;;;;;;;4.63;4.20;;;10.80;1.00;;;;;;5073430;28;20240;-74
2024/01/26 12:30:01;;;;;;;5.67;3.00;;;11.00;1.00;;;;;;5073510;28;20182;-73
2024/01/26 12:32:27;;;;;;;4.00;2.90;;;11.30;1.00;;;;;;5073339;28;20308;-75
2024/01/26 12:34:53;;;;;;;4.07;3.87;;;11.40;99.90;;;;;;5073501;28;20173;-70
2024/01/26 12:37:19;;;;;;;3.80;3.50;;;11.50;1.00;;;;;;5073096;28;20190;-71
2024/01/26 12:39:45;;;;;;;6.33;3.20;;;11.50;1.00;;;;;;5067456;28;20187;-73